createdAt,value
2023-02-12T00:01:27.171Z,3.83
2023-02-12T00:03:55.186Z,2.90
2023-02-12T00:06:23.197Z,2.60
2023-02-12T00:08:51.720Z,4.37
2023-02-12T00:11:20.909Z,3.60
2023-02-12T00:13:49.204Z,2.67
2023-02-12T00:16:20.777Z,2.67
2023-02-12T00:18:49.447Z,3.23
2023-02-12T00:21:17.485Z,2.80
2023-02-12T00:23:45.414Z,2.40
2023-02-12T00:26:14.934Z,2.87
2023-02-12T00:28:43.372Z,2.63
2023-02-12T00:31:13.748Z,2.53
2023-02-12T00:33:43.238Z,2.40
2023-02-12T00:36:15.643Z,2.30
2023-02-12T00:38:43.694Z,2.20
2023-02-12T00:41:12.087Z,2.90
2023-02-12T00:43:40.134Z,2.17
2023-02-12T00:46:09.091Z,3.20
2023-02-12T00:48:37.536Z,1.80
2023-02-12T00:51:07.010Z,1.87
2023-02-12T00:53:35.005Z,2.33
2023-02-12T00:56:03.092Z,1.97
2023-02-12T00:58:31.043Z,1.70
2023-02-12T01:00:58.995Z,1.67
2023-02-12T01:03:27.150Z,1.77
2023-02-12T01:05:55.755Z,1.70
2023-02-12T01:08:25.352Z,1.73
2023-02-12T01:10:57.857Z,1.63
2023-02-12T01:13:26.748Z,1.50
2023-02-12T01:16:03.878Z,1.50
2023-02-12T01:18:31.855Z,1.37
2023-02-12T01:20:59.735Z,1.87
2023-02-12T01:23:29.015Z,1.87
2023-02-12T01:25:57.215Z,1.60
2023-02-12T01:28:25.341Z,1.30
2023-02-12T01:30:53.452Z,2.03
2023-02-12T01:33:22.173Z,1.63
2023-02-12T01:35:50.112Z,1.70
2023-02-12T01:38:18.019Z,1.30
2023-02-12T01:40:47.341Z,1.70
2023-02-12T01:43:17.005Z,1.30
2023-02-12T01:45:54.641Z,1.77
2023-02-12T01:48:25.298Z,1.60
2023-02-12T01:50:54.619Z,2.13
2023-02-12T01:53:23.498Z,1.70
2023-02-12T01:55:57.603Z,1.50
2023-02-12T01:58:26.569Z,1.27
2023-02-12T02:00:54.846Z,1.77
2023-02-12T02:03:23.068Z,1.20
2023-02-12T02:05:55.744Z,1.83
2023-02-12T02:08:24.438Z,1.53
2023-02-12T02:10:53.875Z,2.20
2023-02-12T02:13:39.278Z,2.60
2023-02-12T02:16:14.514Z,1.73
2023-02-12T02:18:45.655Z,2.40
2023-02-12T02:22:01.984Z,2.33
2023-02-12T02:25:11.068Z,2.03
2023-02-12T02:27:44.833Z,1.60
2023-02-12T02:30:32.292Z,2.47
2023-02-12T02:33:11.344Z,2.60
2023-02-12T02:35:42.905Z,1.87
2023-02-12T02:38:19.780Z,2.83
2023-02-12T02:40:53.254Z,1.87
2023-02-12T02:43:24.950Z,2.87
2023-02-12T02:45:57.595Z,2.60
2023-02-12T02:48:27.753Z,2.30
2023-02-12T02:50:59.200Z,2.60
2023-02-12T02:53:31.427Z,2.70
2023-02-12T02:56:01.638Z,2.53
2023-02-12T02:58:35.341Z,2.60
2023-02-12T03:01:08.144Z,2.60
2023-02-12T03:03:39.610Z,2.03
2023-02-12T03:06:11.580Z,2.63
2023-02-12T03:08:41.232Z,3.27
2023-02-12T03:11:12.303Z,2.67
2023-02-12T03:13:44.176Z,3.73
2023-02-12T03:16:18.333Z,5.17
2023-02-12T03:18:53.631Z,2.37
2023-02-12T03:21:25.267Z,4.27
2023-02-12T03:23:58.881Z,1.97
2023-02-12T03:26:30.765Z,3.50
2023-02-12T03:28:58.698Z,3.23
2023-02-12T03:31:32.867Z,2.97
2023-02-12T03:34:07.295Z,2.63
2023-02-12T03:36:39.630Z,2.53
2023-02-12T03:39:11.010Z,2.93
2023-02-12T03:41:43.249Z,2.77
2023-02-12T03:44:17.552Z,3.40
2023-02-12T03:46:52.286Z,2.77
2023-02-12T03:49:23.533Z,3.00
2023-02-12T03:51:51.491Z,2.17
2023-02-12T03:54:21.415Z,2.33
2023-02-12T03:56:53.200Z,2.97
2023-02-12T03:59:21.585Z,2.50
2023-02-12T04:01:53.008Z,2.33
2023-02-12T04:04:21.714Z,3.07
2023-02-12T04:06:50.831Z,2.40
2023-02-12T04:09:18.987Z,2.57
2023-02-12T04:12:03.281Z,2.77
2023-02-12T04:14:37.720Z,3.47
2023-02-12T04:17:11.155Z,2.97
2023-02-12T04:19:44.587Z,2.63
2023-02-12T04:22:31.059Z,3.27
2023-02-12T04:25:03.148Z,2.70
2023-02-12T04:27:38.343Z,3.30
2023-02-12T04:30:09.875Z,3.97
2023-02-12T04:32:42.986Z,3.47
2023-02-12T04:35:16.901Z,1.83
2023-02-12T04:37:47.088Z,3.10
2023-02-12T04:40:16.757Z,4.03
2023-02-12T04:42:45.467Z,2.13
2023-02-12T04:45:14.216Z,3.20
2023-02-12T04:47:43.526Z,4.20
2023-02-12T04:50:12.188Z,4.30
2023-02-12T04:52:40.099Z,3.67
2023-02-12T04:55:08.406Z,4.17
2023-02-12T04:57:36.318Z,3.73
2023-02-12T05:00:05.822Z,4.47
2023-02-12T05:02:35.018Z,13.03
2023-02-12T05:05:04.493Z,5.00
2023-02-12T05:07:32.461Z,4.73
2023-02-12T05:10:00.372Z,6.13
2023-02-12T05:12:28.492Z,6.67
2023-02-12T05:14:56.495Z,4.60
2023-02-12T05:17:24.923Z,4.20
2023-02-12T05:19:52.848Z,5.37
2023-02-12T05:22:22.154Z,5.50
2023-02-12T05:24:50.095Z,5.50
2023-02-12T05:27:18.039Z,5.60
2023-02-12T05:29:46.108Z,5.20
2023-02-12T05:32:14.183Z,5.13
2023-02-12T05:34:42.139Z,6.27
2023-02-12T05:37:10.221Z,4.37
2023-02-12T05:39:39.682Z,4.53
2023-02-12T05:42:07.592Z,6.47
2023-02-12T05:44:35.568Z,4.20
2023-02-12T05:47:03.513Z,6.33
2023-02-12T05:49:31.418Z,6.50
2023-02-12T05:51:59.332Z,6.90
2023-02-12T05:54:27.303Z,5.97
2023-02-12T05:56:56.595Z,6.70
2023-02-12T05:59:24.782Z,6.50
2023-02-12T06:01:53.115Z,7.37
2023-02-12T06:04:23.684Z,7.30
2023-02-12T06:06:51.895Z,5.10
2023-02-12T06:09:19.933Z,10.27
2023-02-12T06:11:47.925Z,7.70
2023-02-12T06:14:18.771Z,4.60
2023-02-12T06:16:47.800Z,7.63
2023-02-12T06:19:16.068Z,9.67
2023-02-12T06:21:43.948Z,10.27
2023-02-12T06:24:13.969Z,8.03
2023-02-12T06:26:41.967Z,9.30
2023-02-12T06:29:09.913Z,8.17
2023-02-12T06:31:39.425Z,8.80
2023-02-12T06:34:09.526Z,7.33
2023-02-12T06:36:38.488Z,8.00
2023-02-12T06:39:06.540Z,7.13
2023-02-12T06:41:34.667Z,7.87
2023-02-12T06:44:02.585Z,7.63
2023-02-12T06:46:30.616Z,8.33
2023-02-12T06:49:01.035Z,7.30
2023-02-12T06:51:31.364Z,7.80
2023-02-12T06:53:59.760Z,7.63
2023-02-12T06:56:28.252Z,6.63
2023-02-12T06:58:58.786Z,6.57
2023-02-12T07:01:28.218Z,6.60
2023-02-12T07:03:58.057Z,7.87
2023-02-12T07:06:28.007Z,8.63
2023-02-12T07:08:56.199Z,7.97
2023-02-12T07:11:25.205Z,9.47
2023-02-12T07:13:53.278Z,8.43
2023-02-12T07:16:21.296Z,7.53
2023-02-12T07:18:49.483Z,9.30
2023-02-12T07:21:18.004Z,7.73
2023-02-12T07:23:51.176Z,6.03
2023-02-12T07:26:20.371Z,8.50
2023-02-12T07:28:48.319Z,7.27
2023-02-12T07:31:18.500Z,8.37
2023-02-12T07:33:46.789Z,7.60
2023-02-12T07:36:17.043Z,7.53
2023-02-12T07:38:45.399Z,9.23
2023-02-12T07:41:16.024Z,7.50
2023-02-12T07:43:45.170Z,7.83
2023-02-12T07:46:16.542Z,6.87
2023-02-12T07:48:44.802Z,7.43
2023-02-12T07:51:16.207Z,8.03
2023-02-12T07:53:44.208Z,7.90
2023-02-12T07:56:15.448Z,6.57
2023-02-12T07:58:45.657Z,7.43
2023-02-12T08:01:15.649Z,7.13
2023-02-12T08:03:43.782Z,8.23
2023-02-12T08:06:13.002Z,7.47
2023-02-12T08:08:40.937Z,8.17
2023-02-12T08:11:09.376Z,8.27
2023-02-12T08:13:39.397Z,7.63
2023-02-12T08:16:09.769Z,7.07
2023-02-12T08:18:37.809Z,7.03
2023-02-12T08:21:06.550Z,8.00
2023-02-12T08:23:34.852Z,16.47
2023-02-12T08:26:10.399Z,10.87
2023-02-12T08:28:42.842Z,9.50
2023-02-12T08:31:13.154Z,10.50
2023-02-12T08:33:41.140Z,9.03
2023-02-12T08:36:11.428Z,8.70
2023-02-12T08:38:40.170Z,8.97
2023-02-12T08:41:09.531Z,8.63
2023-02-12T08:43:40.070Z,9.47
2023-02-12T08:46:09.757Z,9.10
2023-02-12T08:48:37.848Z,9.80
2023-02-12T08:51:07.932Z,8.63
2023-02-12T08:53:35.912Z,9.20
2023-02-12T08:56:04.167Z,8.27
2023-02-12T08:58:32.454Z,9.17
2023-02-12T09:01:02.010Z,7.73
2023-02-12T09:03:29.987Z,9.30
2023-02-12T09:05:58.295Z,10.40
2023-02-12T09:08:26.294Z,11.83
2023-02-12T09:10:54.168Z,8.27
2023-02-12T09:13:22.440Z,6.93
2023-02-12T09:15:50.407Z,7.40
2023-02-12T09:18:19.717Z,6.63
2023-02-12T09:20:47.640Z,6.53
2023-02-12T09:23:16.300Z,7.47
2023-02-12T09:25:46.093Z,7.13
2023-02-12T09:28:15.370Z,6.90
2023-02-12T09:30:43.403Z,7.63
2023-02-12T09:33:12.140Z,7.57
2023-02-12T09:35:41.977Z,7.20
2023-02-12T09:38:10.417Z,8.53
2023-02-12T09:40:46.126Z,7.63
2023-02-12T09:43:20.310Z,7.43
2023-02-12T09:45:55.411Z,8.10
2023-02-12T09:48:40.634Z,7.20
2023-02-12T09:51:11.561Z,6.90
2023-02-12T09:53:41.923Z,8.43
2023-02-12T09:56:20.577Z,6.50
2023-02-12T09:58:51.976Z,7.80
2023-02-12T10:01:21.972Z,7.70
2023-02-12T10:03:51.502Z,7.37
2023-02-12T10:06:23.168Z,8.40
2023-02-12T10:09:01.423Z,7.17
2023-02-12T10:11:46.371Z,7.03
2023-02-12T10:14:37.795Z,7.23
2023-02-12T10:17:11.481Z,6.93
2023-02-12T10:19:54.163Z,8.03
2023-02-12T10:22:30.107Z,8.73
2023-02-12T10:25:05.908Z,7.30
2023-02-12T10:27:39.838Z,7.37
2023-02-12T10:30:16.410Z,7.20
2023-02-12T10:32:45.024Z,7.37
2023-02-12T10:35:16.971Z,6.60
2023-02-12T10:37:51.928Z,7.23
2023-02-12T10:40:23.370Z,7.57
2023-02-12T10:42:52.720Z,9.30
2023-02-12T10:45:21.975Z,9.57
2023-02-12T10:47:52.401Z,8.63
2023-02-12T10:50:29.854Z,7.60
2023-02-12T10:53:00.895Z,7.60
2023-02-12T10:55:31.059Z,8.30
2023-02-12T10:57:59.799Z,7.37
2023-02-12T11:00:31.976Z,7.60
2023-02-12T11:03:19.208Z,6.57
2023-02-12T11:05:47.559Z,6.80
2023-02-12T11:08:32.489Z,6.13
2023-02-12T11:11:10.354Z,6.67
2023-02-12T11:13:39.097Z,6.27
2023-02-12T11:16:07.374Z,6.77
2023-02-12T11:18:37.352Z,6.67
2023-02-12T11:21:07.573Z,7.03
2023-02-12T11:23:38.754Z,10.73
2023-02-12T11:26:07.909Z,7.17
2023-02-12T11:28:37.276Z,6.80
2023-02-12T11:31:20.255Z,6.00
2023-02-12T11:33:48.299Z,6.33
2023-02-12T11:36:19.724Z,6.10
2023-02-12T11:38:52.318Z,6.03
2023-02-12T11:41:25.242Z,6.00
2023-02-12T11:43:53.748Z,4.57
2023-02-12T11:46:23.527Z,5.07
2023-02-12T11:48:53.238Z,5.23
2023-02-12T11:51:23.601Z,3.70
2023-02-12T11:53:54.513Z,3.57
2023-02-12T11:56:23.258Z,3.80
2023-02-12T11:58:52.386Z,4.73
2023-02-12T12:01:22.532Z,3.30
2023-02-12T12:03:56.918Z,2.93
2023-02-12T12:06:30.839Z,2.10
2023-02-12T12:09:05.448Z,2.57
2023-02-12T12:11:40.056Z,3.10
2023-02-12T12:14:14.691Z,3.10
2023-02-12T12:17:03.077Z,2.90
2023-02-12T12:19:54.560Z,3.03
2023-02-12T12:22:30.381Z,3.23
2023-02-12T12:25:09.789Z,3.00
2023-02-12T12:27:59.119Z,3.20
2023-02-12T12:30:42.504Z,2.73
2023-02-12T12:33:16.906Z,3.47
2023-02-12T12:35:49.939Z,3.40
2023-02-12T12:38:25.167Z,3.80
2023-02-12T12:41:03.265Z,2.93
2023-02-12T12:43:37.621Z,3.47
2023-02-12T12:46:16.009Z,3.37
2023-02-12T12:48:53.126Z,2.83
2023-02-12T12:51:31.905Z,3.23
2023-02-12T12:54:08.775Z,2.33
2023-02-12T12:56:46.947Z,2.90
2023-02-12T12:59:31.630Z,2.50
2023-02-12T13:02:31.984Z,5.03
2023-02-12T13:05:48.543Z,2.80
2023-02-12T13:08:25.165Z,4.10
2023-02-12T13:10:57.617Z,3.03
2023-02-12T13:13:30.789Z,2.20
2023-02-12T13:16:04.276Z,2.23
2023-02-12T13:18:39.133Z,2.80
2023-02-12T13:21:15.283Z,2.23
2023-02-12T13:23:47.351Z,2.37
2023-02-12T13:26:19.004Z,3.47
2023-02-12T13:28:51.728Z,3.60
2023-02-12T13:31:32.981Z,3.17
2023-02-12T13:34:04.466Z,4.50
2023-02-12T13:36:32.503Z,3.10
2023-02-12T13:39:04.508Z,3.17
2023-02-12T13:41:32.934Z,4.67
2023-02-12T13:44:08.699Z,2.90
2023-02-12T13:46:47.551Z,2.23
2023-02-12T13:49:24.311Z,2.30
2023-02-12T13:51:57.228Z,2.60
2023-02-12T13:54:35.981Z,2.63
2023-02-12T13:57:04.962Z,2.53
2023-02-12T13:59:53.716Z,2.10
2023-02-12T14:02:43.945Z,2.13
2023-02-12T14:05:22.270Z,2.80
2023-02-12T14:07:51.767Z,1.90
2023-02-12T14:10:25.676Z,1.87
2023-02-12T14:12:54.948Z,1.60
2023-02-12T14:15:44.642Z,1.83
2023-02-12T14:18:33.029Z,2.10
2023-02-12T14:21:46.029Z,1.60
2023-02-12T14:24:41.918Z,1.73
2023-02-12T14:27:29.224Z,1.80
2023-02-12T14:30:31.366Z,1.70
2023-02-12T14:33:20.799Z,1.80
2023-02-12T14:35:51.061Z,2.33
2023-02-12T14:39:01.331Z,2.77
2023-02-12T14:41:42.702Z,1.87
2023-02-12T14:44:47.354Z,1.50
2023-02-12T14:47:45.520Z,1.20
2023-02-12T14:50:19.066Z,1.93
2023-02-12T14:52:53.139Z,1.33
2023-02-12T14:55:27.452Z,2.63
2023-02-12T14:58:01.068Z,6.67
2023-02-12T15:00:32.955Z,4.20
2023-02-12T15:03:04.138Z,13.70
2023-02-12T15:05:35.946Z,9.03
2023-02-12T15:08:08.627Z,5.13
2023-02-12T15:10:39.384Z,5.73
2023-02-12T15:13:16.018Z,5.27
2023-02-12T15:15:48.770Z,3.63
2023-02-12T15:18:21.212Z,2.90
2023-02-12T15:20:54.020Z,3.30
2023-02-12T15:23:37.233Z,3.70
2023-02-12T15:26:06.765Z,4.60
2023-02-12T15:28:36.463Z,4.17
2023-02-12T15:31:10.495Z,4.10
2023-02-12T15:33:43.088Z,4.43
2023-02-12T15:36:17.840Z,3.70
2023-02-12T15:38:49.929Z,4.07
2023-02-12T15:41:30.410Z,3.93
2023-02-12T15:44:00.646Z,3.13
2023-02-12T15:46:29.037Z,3.33
2023-02-12T15:48:57.084Z,3.17
2023-02-12T15:51:30.939Z,3.83
2023-02-12T15:54:00.667Z,3.70
2023-02-12T15:56:29.087Z,3.23
2023-02-12T15:58:58.468Z,3.13
2023-02-12T16:01:27.586Z,3.23
2023-02-12T16:03:57.479Z,3.17
2023-02-12T16:06:30.779Z,4.00
2023-02-12T16:09:00.687Z,3.10
2023-02-12T16:11:29.741Z,4.40
2023-02-12T16:14:00.447Z,3.17
2023-02-12T16:16:30.230Z,3.57
2023-02-12T16:19:07.197Z,3.73
2023-02-12T16:21:39.087Z,4.37
2023-02-12T16:24:13.421Z,4.73
2023-02-12T16:26:41.364Z,4.37
2023-02-12T16:29:17.561Z,5.27
2023-02-12T16:31:54.870Z,3.57
2023-02-12T16:34:35.260Z,4.27
2023-02-12T16:37:06.300Z,5.13
2023-02-12T16:40:18.712Z,4.80
2023-02-12T16:43:07.873Z,5.87
2023-02-12T16:45:41.876Z,6.80
2023-02-12T16:48:19.075Z,5.17
2023-02-12T16:50:49.791Z,4.33
2023-02-12T16:53:41.853Z,4.90
2023-02-12T16:56:15.465Z,5.30
2023-02-12T16:58:43.490Z,7.27
2023-02-12T17:01:19.234Z,6.07
2023-02-12T17:03:50.475Z,4.97
2023-02-12T17:06:20.259Z,5.43
2023-02-12T17:08:49.634Z,5.17
2023-02-12T17:11:17.960Z,6.27
2023-02-12T17:13:46.521Z,5.53
2023-02-12T17:16:29.532Z,5.77
2023-02-12T17:18:58.577Z,5.30
2023-02-12T17:21:29.140Z,8.13
2023-02-12T17:23:58.419Z,5.97
2023-02-12T17:26:26.526Z,8.37
2023-02-12T17:28:54.505Z,7.97
2023-02-12T17:31:24.037Z,7.20
2023-02-12T17:33:51.997Z,7.73
2023-02-12T17:36:19.908Z,7.10
2023-02-12T17:38:47.823Z,7.03
2023-02-12T17:41:17.527Z,7.00
2023-02-12T17:43:46.409Z,6.20
2023-02-12T17:46:15.533Z,5.47
2023-02-12T17:48:43.485Z,7.27
2023-02-12T17:51:11.759Z,8.43
2023-02-12T17:53:39.737Z,8.53
2023-02-12T17:56:11.423Z,7.27
2023-02-12T17:58:41.029Z,8.70
2023-02-12T18:01:10.485Z,8.57
2023-02-12T18:03:38.706Z,7.30
2023-02-12T18:06:07.631Z,7.77
2023-02-12T18:08:35.707Z,8.47
2023-02-12T18:11:06.483Z,7.60
2023-02-12T18:13:34.677Z,6.70
2023-02-12T18:16:07.190Z,8.30
2023-02-12T18:18:35.342Z,7.70
2023-02-12T18:21:07.100Z,7.13
2023-02-12T18:23:35.085Z,7.37
2023-02-12T18:26:06.801Z,6.87
2023-02-12T18:28:34.950Z,7.50
2023-02-12T18:31:04.715Z,7.30
2023-02-12T18:33:33.112Z,6.50
2023-02-12T18:36:03.226Z,6.43
2023-02-12T18:38:32.043Z,6.83
2023-02-12T18:41:00.924Z,7.17
2023-02-12T18:43:29.259Z,6.40
2023-02-12T18:45:57.336Z,7.30
2023-02-12T18:48:26.713Z,6.70
2023-02-12T18:50:55.417Z,8.50
2023-02-12T18:53:23.596Z,7.73
2023-02-12T18:55:52.415Z,8.67
2023-02-12T18:58:20.328Z,9.33
2023-02-12T19:00:48.344Z,6.53
2023-02-12T19:03:16.441Z,7.30
2023-02-12T19:05:45.744Z,6.57
2023-02-12T19:08:15.159Z,6.03
2023-02-12T19:10:43.484Z,5.90
2023-02-12T19:13:11.785Z,6.03
2023-02-12T19:15:40.332Z,6.50
2023-02-12T19:18:08.376Z,6.30
2023-02-12T19:20:36.294Z,8.00
2023-02-12T19:23:05.552Z,6.73
2023-02-12T19:25:36.200Z,7.00
2023-02-12T19:28:04.302Z,5.50
2023-02-12T19:30:32.301Z,6.10
2023-02-12T19:33:00.414Z,6.17
2023-02-12T19:35:28.310Z,6.33
2023-02-12T19:37:56.411Z,5.93
2023-02-12T19:40:25.786Z,7.57
2023-02-12T19:42:53.691Z,5.63
2023-02-12T19:45:21.612Z,5.97
2023-02-12T19:47:50.768Z,6.23
2023-02-12T19:50:18.777Z,5.83
2023-02-12T19:52:46.708Z,6.70
2023-02-12T19:55:14.700Z,6.07
2023-02-12T19:57:44.171Z,6.23
2023-02-12T20:00:13.547Z,7.10
2023-02-12T20:02:43.817Z,6.30
2023-02-12T20:05:11.910Z,6.10
2023-02-12T20:07:39.803Z,7.07
2023-02-12T20:10:08.823Z,6.07
2023-02-12T20:12:40.113Z,6.90
2023-02-12T20:15:10.285Z,6.33
2023-02-12T20:17:38.185Z,6.50
2023-02-12T20:20:07.166Z,5.67
2023-02-12T20:22:36.733Z,6.23
2023-02-12T20:25:04.657Z,6.07
2023-02-12T20:27:32.947Z,6.30
2023-02-12T20:30:01.121Z,6.73
2023-02-12T20:32:30.400Z,6.10
2023-02-12T20:34:58.408Z,6.40
2023-02-12T20:37:39.731Z,6.80
2023-02-12T20:40:08.953Z,6.23
2023-02-12T20:42:37.886Z,6.10
2023-02-12T20:45:07.182Z,6.43
2023-02-12T20:47:36.489Z,5.30
2023-02-12T20:50:04.727Z,5.87
2023-02-12T20:52:32.915Z,6.37
2023-02-12T20:55:00.791Z,5.87
2023-02-12T20:57:28.724Z,6.70
2023-02-12T20:59:56.613Z,5.70
2023-02-12T21:02:24.572Z,7.23
2023-02-12T21:04:56.083Z,6.20
2023-02-12T21:07:24.047Z,5.37
2023-02-12T21:09:51.953Z,4.63
2023-02-12T21:12:19.838Z,5.90
2023-02-12T21:14:47.848Z,6.40
2023-02-12T21:17:15.741Z,5.93
2023-02-12T21:19:43.656Z,5.80
2023-02-12T21:22:12.981Z,5.23
2023-02-12T21:24:40.890Z,5.87
2023-02-12T21:27:08.840Z,5.77
2023-02-12T21:29:36.788Z,6.60
2023-02-12T21:32:04.929Z,6.23
2023-02-12T21:34:33.077Z,5.60
2023-02-12T21:37:01.020Z,6.50
2023-02-12T21:39:30.340Z,6.50
2023-02-12T21:42:00.079Z,6.47
2023-02-12T21:44:28.868Z,6.17
2023-02-12T21:46:57.546Z,5.47
2023-02-12T21:49:27.635Z,6.00
2023-02-12T21:51:57.678Z,5.83
2023-02-12T21:54:26.257Z,6.50
2023-02-12T21:56:55.817Z,7.23
2023-02-12T21:59:24.837Z,6.90
2023-02-12T22:01:54.052Z,6.70
2023-02-12T22:04:22.017Z,6.87
2023-02-12T22:06:52.592Z,6.63
2023-02-12T22:09:21.916Z,6.60
2023-02-12T22:11:52.148Z,7.80
2023-02-12T22:14:22.314Z,7.33
2023-02-12T22:16:50.604Z,7.13
2023-02-12T22:19:18.834Z,7.20
2023-02-12T22:21:46.846Z,7.07
2023-02-12T22:24:16.696Z,7.33
2023-02-12T22:26:45.432Z,6.83
2023-02-12T22:29:14.838Z,7.07
2023-02-12T22:31:46.004Z,7.43
2023-02-12T22:34:15.727Z,7.73
2023-02-12T22:36:44.392Z,7.10
2023-02-12T22:39:13.867Z,6.63
2023-02-12T22:41:43.140Z,7.00
2023-02-12T22:44:12.159Z,7.80
2023-02-12T22:46:40.149Z,6.90
2023-02-12T22:49:09.438Z,8.10
2023-02-12T22:51:39.531Z,6.67
2023-02-12T22:54:07.646Z,7.83
2023-02-12T22:56:35.548Z,7.33
2023-02-12T22:59:03.559Z,6.13
2023-02-12T23:01:32.225Z,6.33
2023-02-12T23:04:00.502Z,6.33
2023-02-12T23:06:31.249Z,5.97
2023-02-12T23:09:01.100Z,6.93
2023-02-12T23:11:30.403Z,6.70
2023-02-12T23:13:59.710Z,6.50
2023-02-12T23:16:27.846Z,7.20
2023-02-12T23:18:56.900Z,6.73
2023-02-12T23:21:26.012Z,6.00
2023-02-12T23:23:55.728Z,6.40
2023-02-12T23:26:24.074Z,6.40
2023-02-12T23:28:52.073Z,6.50
2023-02-12T23:31:20.348Z,6.07
2023-02-12T23:33:48.426Z,5.77
2023-02-12T23:36:16.733Z,5.30
2023-02-12T23:38:44.657Z,5.43
2023-02-12T23:41:14.324Z,5.63
2023-02-12T23:43:42.279Z,5.30
2023-02-12T23:46:10.362Z,5.77
2023-02-12T23:48:38.334Z,5.67
2023-02-12T23:51:06.402Z,5.17
2023-02-12T23:53:34.381Z,5.10
2023-02-12T23:56:02.281Z,5.37
2023-02-12T23:58:31.614Z,5.30
